Time;durP1;ratioP1;P1;durP2;ratioP2;P2;SDS_P1;SDS_P2;PMS_P1;PMS_P2;Temp;Humidity;BMP_temperature;BMP_pressure;BME280_temperature;BME280_humidity;BME280_pressure;Samples;Min_cycle;Max_cycle;Signal;HPM_P1;HPM_P2
2022/04/12 00:00:18;;;;;;;0.90;0.90;;;;;;;6.20;59.18;100771.14;103285;1279;138181;-64
2022/04/12 00:03:02;;;;;;;0.80;0.80;;;;;;;6.14;59.45;100772.73;103397;1279;99467;-64
2022/04/12 00:05:30;;;;;;;0.80;0.80;;;;;;;6.10;59.38;100774.86;103332;1279;139273;-65
2022/04/12 00:07:59;;;;;;;0.90;0.90;;;;;;;6.06;59.42;100777.86;103349;1279;97029;-64
2022/04/12 00:10:31;;;;;;;0.70;0.70;;;;;;;6.01;59.57;100780.52;103354;1279;138348;-65
2022/04/12 00:13:00;;;;;;;0.80;0.80;;;;;;;5.90;59.54;100781.20;103424;1279;111663;-66
2022/04/12 00:15:28;;;;;;;0.80;0.80;;;;;;;5.82;59.95;100779.44;103546;1279;99500;-63
2022/04/12 00:20:44;;;;;;;0.90;0.90;;;;;;;5.84;60.18;100782.61;103440;1279;97776;-64
2022/04/12 00:23:14;;;;;;;0.90;0.90;;;;;;;5.88;59.61;100780.84;103293;1279;138160;-62
2022/04/12 00:25:45;;;;;;;0.90;0.90;;;;;;;5.83;59.71;100785.25;103711;1279;111654;-65
2022/04/12 00:28:14;;;;;;;0.90;0.90;;;;;;;5.76;59.83;100786.49;103294;1279;139268;-64
2022/04/12 00:30:42;;;;;;;0.90;0.90;;;;;;;5.70;60.30;100783.85;103510;1279;108797;-64
2022/04/12 00:33:10;;;;;;;0.90;0.90;;;;;;;5.67;60.45;100784.20;103384;1279;97139;-63
2022/04/12 00:35:38;;;;;;;0.90;0.90;;;;;;;5.62;60.64;100785.79;103278;1280;138239;-63
2022/04/12 00:38:17;;;;;;;0.90;0.90;;;;;;;5.61;60.63;100784.91;103435;1279;111361;-63
2022/04/12 00:40:46;;;;;;;0.90;0.90;;;;;;;5.60;60.75;100779.09;103392;1279;139195;-63
2022/04/12 00:43:16;;;;;;;0.80;0.80;;;;;;;5.58;60.77;100778.92;103391;1279;108935;-64
2022/04/12 00:45:45;;;;;;;0.90;0.90;;;;;;;5.58;60.68;100778.03;103419;1279;97004;-63
2022/04/12 00:48:14;;;;;;;0.90;0.90;;;;;;;5.48;60.93;100778.20;103272;1279;138436;-64
2022/04/12 00:50:42;;;;;;;0.90;0.90;;;;;;;5.42;61.05;100778.90;103333;1278;111236;-63
2022/04/12 00:53:10;;;;;;;0.90;0.90;;;;;;;5.44;61.13;100776.63;103296;1279;139210;-64
2022/04/12 00:55:38;;;;;;;0.90;0.90;;;;;;;5.41;60.92;100780.13;103433;1279;108848;-64
2022/04/12 00:58:07;;;;;;;1.00;1.00;;;;;;;5.38;61.15;100785.25;103243;1279;138855;-63
2022/04/12 01:00:35;;;;;;;0.90;0.90;;;;;;;5.36;60.89;100785.42;103547;1279;97252;-64
2022/04/12 01:03:04;;;;;;;1.00;1.00;;;;;;;5.36;61.14;100785.59;103417;1279;111011;-67
2022/04/12 01:05:32;;;;;;;1.00;1.00;;;;;;;5.36;60.87;100785.41;103281;1278;138746;-63
2022/04/12 01:08:01;;;;;;;0.90;0.90;;;;;;;5.24;60.66;100782.75;103362;1279;108932;-65
2022/04/12 01:10:31;;;;;;;1.00;1.00;;;;;;;5.14;61.02;100786.43;103449;1279;138573;-64
2022/04/12 01:13:00;;;;;;;1.10;1.10;;;;;;;5.06;61.27;100783.95;103628;1279;96496;-64
2022/04/12 01:15:28;;;;;;;1.00;1.00;;;;;;;5.07;61.41;100784.65;103628;1279;111649;-64
2022/04/12 01:17:57;;;;;;;1.00;1.00;;;;;;;5.05;61.34;100782.89;103276;1279;138826;-62
2022/04/12 01:20:29;;;;;;;1.00;1.00;;;;;;;4.98;61.49;100788.85;103466;1281;108805;-62
2022/04/12 01:23:15;;;;;;;1.00;1.00;;;;;;;4.88;61.76;100786.73;103500;1278;138736;-62
2022/04/12 01:25:42;;;;;;;0.90;0.90;;;;;;;4.82;61.75;100787.73;103398;1279;96848;-64
2022/04/12 01:28:11;;;;;;;0.90;0.90;;;;;;;4.83;61.69;100792.14;103194;1279;171937;-63
2022/04/12 01:30:39;;;;;;;0.90;0.90;;;;;;;4.82;61.62;100795.13;103359;1279;99373;-64
2022/04/12 01:33:08;;;;;;;1.00;1.00;;;;;;;4.79;61.58;100794.95;103354;1279;108731;-63
2022/04/12 01:35:36;;;;;;;0.90;0.90;;;;;;;4.89;61.60;100797.27;103209;1279;139556;-63
2022/04/12 01:38:03;;;;;;;0.90;0.90;;;;;;;4.93;61.22;100794.98;103367;1279;97026;-61
2022/04/12 01:40:31;;;;;;;0.90;0.90;;;;;;;4.86;61.00;100798.15;103367;1279;139512;-63
2022/04/12 01:42:59;;;;;;;1.00;1.00;;;;;;;4.70;61.19;100793.50;103424;1279;99364;-63
2022/04/12 01:45:27;;;;;;;1.00;1.00;;;;;;;4.63;61.38;100797.52;103410;1279;108106;-63
2022/04/12 01:47:56;;;;;;;1.10;1.10;;;;;;;4.66;61.59;100798.94;103282;1279;139044;-62
2022/04/12 01:50:24;;;;;;;0.90;0.90;;;;;;;4.72;61.24;100803.20;103434;1279;96564;-63
2022/04/12 01:52:52;;;;;;;0.90;0.90;;;;;;;4.70;61.33;100803.18;103260;1278;138510;-64
2022/04/12 01:55:20;;;;;;;0.90;0.90;;;;;;;4.67;61.48;100804.75;103414;1279;99489;-63
2022/04/12 01:57:47;;;;;;;0.90;0.90;;;;;;;4.54;61.42;100808.73;103285;1279;108616;-63
2022/04/12 02:00:16;;;;;;;1.00;1.00;;;;;;;4.45;61.40;100810.45;103353;1279;138623;-62
2022/04/12 02:02:44;;;;;;;0.90;0.90;;;;;;;4.40;61.71;100811.83;103350;1279;97052;-64
2022/04/12 02:05:12;;;;;;;1.00;1.00;;;;;;;4.35;61.93;100811.63;103290;1279;138202;-62
2022/04/12 02:07:43;;;;;;;1.00;1.00;;;;;;;4.33;62.22;100810.57;103451;1279;99486;-62
2022/04/12 02:10:11;;;;;;;0.90;0.90;;;;;;;4.33;62.39;100815.29;103519;1279;138999;-63
2022/04/12 02:12:39;;;;;;;1.00;1.00;;;;;;;4.29;62.25;100814.58;103610;1279;97100;-64
2022/04/12 02:15:07;;;;;;;1.00;1.00;;;;;;;4.24;62.29;100811.38;103382;1279;97757;-64
2022/04/12 02:17:35;;;;;;;1.10;1.10;;;;;;;4.14;62.47;100816.95;103386;1279;138640;-63
2022/04/12 02:20:03;;;;;;;0.90;0.90;;;;;;;4.12;62.58;100820.98;103376;1279;99374;-63
2022/04/12 02:22:31;;;;;;;1.00;1.00;;;;;;;4.11;62.74;100821.48;103281;1279;138606;-63
2022/04/12 02:24:59;;;;;;;1.10;1.10;;;;;;;4.08;62.64;100820.60;103395;1279;97014;-64
2022/04/12 02:27:26;;;;;;;1.20;1.20;;;;;;;4.06;62.69;100822.50;103375;1279;96467;-64
2022/04/12 02:29:54;;;;;;;1.00;1.00;;;;;;;4.08;62.68;100825.87;103247;1279;138926;-64
2022/04/12 02:32:22;;;;;;;1.10;1.10;;;;;;;4.08;62.61;100826.74;103383;1279;99448;-64
2022/04/12 02:34:50;;;;;;;1.00;1.00;;;;;;;4.05;62.85;100828.48;103270;1279;138184;-63
2022/04/12 02:37:17;;;;;;;1.10;1.10;;;;;;;4.05;62.80;100833.39;103396;1279;96999;-63
2022/04/12 02:39:45;;;;;;;0.90;0.90;;;;;;;4.10;62.74;100833.08;103438;1279;97818;-64
2022/04/12 02:42:13;;;;;;;1.00;1.00;;;;;;;4.13;62.47;100836.09;103376;1279;138606;-65
2022/04/12 02:44:41;;;;;;;1.00;1.00;;;;;;;4.12;62.33;100840.83;103471;1279;98379;-63
2022/04/12 02:47:08;;;;;;;1.10;1.10;;;;;;;4.05;62.51;100842.35;103291;1279;138589;-64
2022/04/12 02:49:37;;;;;;;1.00;1.00;;;;;;;3.98;62.93;100839.48;103314;1279;97124;-65
2022/04/12 02:52:05;;;;;;;1.10;1.10;;;;;;;3.92;63.00;100839.08;103246;1279;138700;-64
2022/04/12 02:54:33;;;;;;;1.10;1.10;;;;;;;3.87;63.26;100841.50;103413;1279;111048;-62
2022/04/12 02:57:01;;;;;;;1.10;1.10;;;;;;;3.78;63.57;100842.32;103367;1279;99558;-64
2022/04/12 02:59:29;;;;;;;1.20;1.20;;;;;;;3.77;63.76;100842.84;103298;1279;138969;-62
2022/04/12 03:01:56;;;;;;;1.10;1.10;;;;;;;3.77;63.69;100839.49;103383;1279;96679;-62
2022/04/12 03:04:25;;;;;;;1.10;1.10;;;;;;;3.81;63.45;100841.98;103269;1279;138743;-64
2022/04/12 03:06:52;;;;;;;1.20;1.20;;;;;;;3.78;63.40;100842.14;103424;1279;111140;-64
2022/04/12 03:09:20;;;;;;;1.20;1.20;;;;;;;3.83;63.36;100842.36;103409;1279;99477;-64
2022/04/12 03:11:48;;;;;;;1.00;1.00;;;;;;;3.88;63.04;100844.15;103217;1279;138461;-63
2022/04/12 03:14:16;;;;;;;1.10;1.10;;;;;;;3.92;62.97;100844.73;103388;1279;96694;-63
2022/04/12 03:16:43;;;;;;;1.10;1.10;;;;;;;3.87;62.99;100848.20;103318;1279;139029;-64
2022/04/12 03:19:11;;;;;;;1.10;1.10;;;;;;;3.78;62.95;100848.29;103380;1279;111106;-62
2022/04/12 03:21:39;;;;;;;1.00;1.00;;;;;;;3.67;62.96;100856.44;103454;1279;99323;-64
2022/04/12 03:24:08;;;;;;;1.10;1.10;;;;;;;3.61;63.26;100860.25;103280;1279;138440;-65
2022/04/12 03:26:36;;;;;;;1.10;1.10;;;;;;;3.60;63.08;100859.71;103379;1279;97354;-62
2022/04/12 03:29:04;;;;;;;1.00;1.00;;;;;;;3.63;63.34;100862.55;103294;1279;138753;-65
2022/04/12 03:31:32;;;;;;;1.10;1.10;;;;;;;3.67;63.37;100860.66;103335;1279;109389;-65
2022/04/12 03:33:59;;;;;;;1.10;1.10;;;;;;;3.64;63.45;100858.52;103429;1279;99918;-66
2022/04/12 03:36:27;;;;;;;1.10;1.10;;;;;;;3.61;63.59;100855.33;103281;1279;138005;-64
2022/04/12 03:38:55;;;;;;;1.10;1.10;;;;;;;3.58;63.80;100858.81;103432;1279;96648;-64
2022/04/12 03:41:23;;;;;;;1.10;1.10;;;;;;;3.59;63.74;100856.89;103351;1279;138761;-64
2022/04/12 03:43:51;;;;;;;1.00;1.00;;;;;;;3.58;63.70;100857.05;103411;1279;111238;-64
2022/04/12 03:46:19;;;;;;;1.10;1.10;;;;;;;3.58;63.64;100861.97;103317;1279;138498;-64
2022/04/12 03:48:47;;;;;;;1.10;1.10;;;;;;;3.55;63.80;100860.55;103358;1279;108899;-64
2022/04/12 03:51:20;;;;;;;1.20;1.20;;;;;;;3.53;63.74;100863.15;103492;1279;97926;-63
2022/04/12 03:53:49;;;;;;;1.10;1.10;;;;;;;3.49;63.63;100863.82;103344;1279;138494;-63
2022/04/12 03:56:17;;;;;;;1.10;1.10;;;;;;;3.49;63.64;100864.17;103493;1279;110084;-63
2022/04/12 03:58:45;;;;;;;1.10;1.10;;;;;;;3.43;63.89;100870.61;103359;1279;138367;-64
2022/04/12 04:01:12;;;;;;;1.10;1.10;;;;;;;3.44;64.02;100870.80;103368;1279;108973;-64
2022/04/12 04:03:41;;;;;;;1.20;1.20;;;;;;;3.45;63.92;100875.02;103682;1279;96475;-63
2022/04/12 04:06:09;;;;;;;1.20;1.20;;;;;;;3.42;63.75;100878.67;103356;1279;138163;-64
2022/04/12 04:08:38;;;;;;;1.10;1.10;;;;;;;3.40;63.98;100881.27;103430;1279;111126;-63
2022/04/12 04:11:05;;;;;;;1.10;1.10;;;;;;;3.35;64.03;100883.52;103250;1279;139179;-63
2022/04/12 04:13:36;;;;;;;1.10;1.10;;;;;;;3.40;64.43;100887.60;103697;1279;108792;-64
2022/04/12 04:16:05;;;;;;;1.20;1.20;;;;;;;3.46;64.30;100888.89;103438;1281;138860;-63
2022/04/12 04:18:34;;;;;;;1.10;1.10;;;;;;;3.51;63.89;100889.30;103526;1279;97030;-61
2022/04/12 04:21:02;;;;;;;1.10;1.10;;;;;;;3.51;64.30;100887.73;103383;1279;111783;-64
2022/04/12 04:23:30;;;;;;;1.10;1.10;;;;;;;3.58;64.34;100890.23;103305;1279;139103;-64
2022/04/12 04:25:58;;;;;;;1.10;1.10;;;;;;;3.66;64.25;100886.10;103422;1278;108819;-65
2022/04/12 04:28:29;;;;;;;1.10;1.10;;;;;;;3.75;64.17;100887.60;103339;1279;138461;-65
2022/04/12 04:30:57;;;;;;;1.20;1.20;;;;;;;3.86;63.89;100887.36;103446;1279;96689;-65
2022/04/12 04:33:26;;;;;;;1.00;1.00;;;;;;;3.94;63.79;100889.88;103478;1279;112375;-65
2022/04/12 04:35:53;;;;;;;1.30;1.30;;;;;;;4.02;63.66;100891.37;103337;1279;138663;-64
2022/04/12 04:38:21;;;;;;;1.00;1.00;;;;;;;4.02;63.87;100892.05;103425;1279;108810;-65
2022/04/12 04:40:49;;;;;;;1.10;1.10;;;;;;;3.96;64.45;100891.84;103232;1279;138820;-63
2022/04/12 04:43:17;;;;;;;1.00;1.00;;;;;;;3.94;64.44;100893.04;103339;1279;98228;-65
2022/04/12 04:45:44;;;;;;;1.00;1.00;;;;;;;3.93;64.81;100892.33;103277;1279;111858;-63
2022/04/12 04:48:13;;;;;;;1.10;1.10;;;;;;;3.97;64.92;100890.78;103268;1279;138343;-65
2022/04/12 04:50:41;;;;;;;1.10;1.10;;;;;;;4.07;64.69;100892.27;103253;1279;108496;-63
2022/04/12 04:53:12;;;;;;;1.10;1.10;;;;;;;4.18;64.72;100897.27;103283;1279;139159;-65
2022/04/12 04:55:42;;;;;;;1.00;1.00;;;;;;;4.33;64.49;100893.54;103299;1279;97779;-64
2022/04/12 04:58:10;;;;;;;1.00;1.00;;;;;;;4.41;64.20;100896.58;103352;1280;138333;-63
2022/04/12 05:00:38;;;;;;;1.00;1.00;;;;;;;4.46;64.01;100893.44;103450;1279;98535;-64
2022/04/12 05:03:06;;;;;;;1.20;1.20;;;;;;;4.50;64.26;100895.05;103477;1279;108865;-63
2022/04/12 05:05:34;;;;;;;0.90;0.90;;;;;;;4.58;64.45;100895.62;103221;1280;139477;-62
2022/04/12 05:08:02;;;;;;;0.90;0.90;;;;;;;4.70;64.22;100896.23;103367;1279;96885;-62
2022/04/12 05:10:32;;;;;;;0.90;0.90;;;;;;;4.76;64.10;100896.61;103275;1281;138174;-63
2022/04/12 05:13:01;;;;;;;1.00;1.00;;;;;;;4.86;63.65;100900.70;103312;1279;99417;-64
2022/04/12 05:15:30;;;;;;;0.90;0.90;;;;;;;4.95;63.74;100903.75;103446;1279;109135;-65
2022/04/12 05:18:04;;;;;;;1.00;1.00;;;;;;;5.05;63.88;100909.26;103251;1281;138740;-61
2022/04/12 05:20:32;;;;;;;1.00;1.00;;;;;;;5.14;63.53;100915.98;103572;1279;97901;-64
2022/04/12 05:22:59;;;;;;;1.10;1.10;;;;;;;5.22;63.34;100918.83;103321;1279;138580;-65
2022/04/12 05:25:27;;;;;;;0.90;0.90;;;;;;;5.31;63.21;100921.85;103497;1279;99546;-64
2022/04/12 05:27:56;;;;;;;1.00;1.00;;;;;;;5.41;63.00;100921.90;103480;1280;108925;-65
2022/04/12 05:30:24;;;;;;;0.90;0.90;;;;;;;5.45;63.16;100926.31;103231;1281;138819;-64
2022/04/12 05:32:52;;;;;;;0.90;0.90;;;;;;;5.56;62.92;100929.69;103372;1281;97228;-64
2022/04/12 05:35:20;;;;;;;0.90;0.90;;;;;;;5.71;62.95;100937.30;103338;1281;138059;-65
2022/04/12 05:37:52;;;;;;;0.90;0.90;;;;;;;5.84;62.49;100938.74;103852;1279;99398;-66
2022/04/12 05:40:38;;;;;;;0.90;0.90;;;;;;;5.97;62.23;100944.05;103372;1281;138794;-63
2022/04/12 05:43:08;;;;;;;0.90;0.90;;;;;;;5.97;61.98;100943.89;103602;1281;96869;-65
2022/04/12 05:45:36;;;;;;;0.90;0.90;;;;;;;5.94;62.11;100947.73;103455;1281;97046;-66
2022/04/12 05:48:04;;;;;;;1.00;1.00;;;;;;;5.94;62.40;100948.80;103348;1279;139116;-65
2022/04/12 05:50:32;;;;;;;0.80;0.80;;;;;;;5.97;62.25;100952.34;103423;1279;99789;-65
2022/04/12 05:52:59;;;;;;;0.90;0.90;;;;;;;5.97;62.31;100954.82;103357;1281;138316;-64
2022/04/12 05:55:28;;;;;;;0.80;0.80;;;;;;;6.03;62.18;100957.84;103456;1280;98429;-65
2022/04/12 05:58:00;;;;;;;1.10;1.10;;;;;;;6.00;62.33;100961.00;103596;1277;98318;-64
2022/04/12 06:00:33;;;;;;;0.80;0.80;;;;;;;6.08;62.28;100964.02;103458;1278;138811;-62
2022/04/12 06:03:02;;;;;;;0.80;0.80;;;;;;;6.13;61.98;100966.31;103500;1280;99807;-63
2022/04/12 06:05:32;;;;;;;0.80;0.80;;;;;;;6.15;62.01;100968.24;103427;1279;138291;-64
2022/04/12 06:08:03;;;;;;;0.80;0.80;;;;;;;6.23;61.96;100972.48;103532;1281;97144;-63
2022/04/12 06:10:31;;;;;;;0.80;0.80;;;;;;;6.32;61.03;100972.33;103243;1281;139380;-62
2022/04/12 06:13:00;;;;;;;1.00;1.00;;;;;;;6.43;61.33;100972.33;103458;1281;111614;-63
2022/04/12 06:15:28;;;;;;;0.70;0.70;;;;;;;6.59;60.78;100975.68;103951;1279;99374;-64
2022/04/12 06:17:56;;;;;;;0.70;0.70;;;;;;;6.76;60.31;100983.59;103384;1281;139068;-64
2022/04/12 06:20:24;;;;;;;0.80;0.80;;;;;;;6.84;60.08;100980.05;103436;1281;97055;-64
2022/04/12 06:22:52;;;;;;;0.90;0.90;;;;;;;6.88;59.94;100979.52;103378;1281;138557;-64
2022/04/12 06:25:20;;;;;;;0.90;0.90;;;;;;;6.85;59.68;100980.92;103277;1280;111047;-64
2022/04/12 06:27:52;;;;;;;0.80;0.80;;;;;;;6.88;59.95;100985.16;103610;1280;99468;-64
2022/04/12 06:30:26;;;;;;;0.70;0.70;;;;;;;6.97;60.08;100983.38;103237;1281;139163;-65
2022/04/12 06:32:54;;;;;;;0.70;0.70;;;;;;;7.10;59.87;100986.35;103511;1280;97000;-64
2022/04/12 06:35:22;;;;;;;0.80;0.80;;;;;;;7.19;59.15;100988.98;103194;1279;139513;-63
2022/04/12 06:37:56;;;;;;;0.80;0.80;;;;;;;7.13;59.36;100992.17;103334;1277;111229;-64
2022/04/12 06:40:25;;;;;;;0.70;0.70;;;;;;;7.15;59.72;100990.23;103472;1281;138828;-63
2022/04/12 06:42:53;;;;;;;0.70;0.70;;;;;;;7.19;59.69;100993.05;103433;1281;108696;-64
2022/04/12 06:45:21;;;;;;;0.80;0.80;;;;;;;7.27;59.70;100991.26;103449;1279;98275;-64
2022/04/12 06:47:58;;;;;;;0.80;0.80;;;;;;;7.38;59.12;100990.70;103145;1281;138278;-64
2022/04/12 06:50:27;;;;;;;0.70;0.70;;;;;;;7.39;58.68;100994.73;103739;1281;111596;-64
2022/04/12 06:52:56;;;;;;;0.70;0.70;;;;;;;7.47;58.55;100994.02;103310;1280;139116;-64
2022/04/12 06:55:24;;;;;;;0.80;0.80;;;;;;;7.53;58.23;100996.98;103528;1279;108838;-63
2022/04/12 06:57:53;;;;;;;0.70;0.70;;;;;;;7.61;57.51;101003.50;103433;1281;97498;-63
2022/04/12 07:00:20;;;;;;;0.70;0.70;;;;;;;7.63;57.76;101009.31;103328;1279;139489;-64
2022/04/12 07:02:49;;;;;;;0.70;0.70;;;;;;;7.61;56.20;101008.79;103452;1281;109577;-63
2022/04/12 07:05:17;;;;;;;0.70;0.70;;;;;;;7.60;56.10;101006.33;103405;1279;138932;-63
2022/04/12 07:07:45;;;;;;;0.70;0.70;;;;;;;7.65;56.16;101012.48;103447;1281;108401;-64
2022/04/12 07:10:15;;;;;;;0.70;0.70;;;;;;;7.76;56.34;101009.44;103324;1281;138975;-64
2022/04/12 07:12:43;;;;;;;0.70;0.70;;;;;;;7.83;56.30;101013.29;103471;1279;97969;-64
2022/04/12 07:15:13;;;;;;;0.80;0.80;;;;;;;7.86;56.03;101013.63;103521;1281;110911;-62
2022/04/12 07:17:41;;;;;;;0.60;0.60;;;;;;;7.91;56.11;101010.41;103359;1281;138334;-64
2022/04/12 07:20:09;;;;;;;0.60;0.60;;;;;;;7.99;55.30;101009.67;103469;1280;106974;-63
2022/04/12 07:22:37;;;;;;;0.70;0.70;;;;;;;8.00;54.46;101011.42;103570;1279;138610;-63
2022/04/12 07:25:06;;;;;;;0.80;0.80;;;;;;;8.09;54.45;101010.31;103479;1281;96989;-64
2022/04/12 07:27:37;;;;;;;0.60;0.60;;;;;;;8.16;54.37;101012.74;103494;1281;109731;-64
2022/04/12 07:30:07;;;;;;;0.60;0.60;;;;;;;8.22;54.39;101015.70;103473;1280;138500;-64
2022/04/12 07:32:35;;;;;;;0.60;0.60;;;;;;;8.22;53.59;101017.31;103511;1280;109104;-63
2022/04/12 07:35:03;;;;;;;0.60;0.60;;;;;;;8.27;53.72;101020.80;103329;1280;138873;-64
2022/04/12 07:37:30;;;;;;;0.70;0.70;;;;;;;8.40;53.82;101023.38;103453;1279;96494;-65
2022/04/12 07:39:58;;;;;;;0.70;0.70;;;;;;;8.57;54.03;101017.98;103472;1279;111198;-64
2022/04/12 07:42:26;;;;;;;0.60;0.60;;;;;;;8.79;53.49;101025.21;103378;1281;138215;-62
2022/04/12 07:44:54;;;;;;;0.60;0.60;;;;;;;8.86;51.95;101029.92;103373;1281;108803;-63
2022/04/12 07:47:22;;;;;;;0.70;0.70;;;;;;;8.90;52.34;101027.94;103293;1279;141940;-64
2022/04/12 07:49:50;;;;;;;0.60;0.60;;;;;;;9.07;51.90;101029.38;103472;1281;96576;-64
2022/04/12 07:52:17;;;;;;;0.50;0.50;;;;;;;9.36;50.94;101031.02;103306;1280;138358;-65
2022/04/12 07:54:45;;;;;;;0.60;0.60;;;;;;;9.48;50.49;101028.77;103522;1278;98393;-64
2022/04/12 07:57:13;;;;;;;0.60;0.60;;;;;;;9.59;50.14;101030.05;103418;1281;108840;-63
2022/04/12 07:59:41;;;;;;;0.50;0.50;;;;;;;9.64;49.75;101030.17;103327;1281;138332;-63
2022/04/12 08:02:08;;;;;;;0.50;0.50;;;;;;;9.67;49.83;101030.13;103337;1280;96470;-63
2022/04/12 08:04:36;;;;;;;0.50;0.50;;;;;;;9.80;49.90;101032.63;103310;1279;138351;-63
2022/04/12 08:07:04;;;;;;;0.60;0.60;;;;;;;9.86;49.40;101030.41;103358;1281;99324;-63
2022/04/12 08:09:32;;;;;;;0.50;0.50;;;;;;;9.94;49.17;101028.91;103464;1279;109086;-62
2022/04/12 08:12:00;;;;;;;0.50;0.50;;;;;;;10.04;48.49;101027.35;103354;1281;138321;-63
2022/04/12 08:14:28;;;;;;;0.50;0.50;;;;;;;10.06;47.17;101026.61;103408;1281;97035;-63
2022/04/12 08:16:56;;;;;;;0.50;0.50;;;;;;;10.13;47.27;101026.68;103343;1280;139684;-64
2022/04/12 08:19:24;;;;;;;0.50;0.40;;;;;;;10.21;47.33;101026.58;103457;1280;99344;-63
2022/04/12 08:21:51;;;;;;;0.50;0.40;;;;;;;10.30;47.07;101024.84;103414;1281;108855;-63
2022/04/12 08:24:21;;;;;;;0.40;0.40;;;;;;;10.39;46.95;101027.04;103306;1281;139599;-64
2022/04/12 08:26:49;;;;;;;0.50;0.50;;;;;;;10.55;46.18;101029.28;103519;1279;96578;-62
2022/04/12 08:29:17;;;;;;;0.50;0.50;;;;;;;10.66;46.58;101034.42;103322;1281;138486;-64
2022/04/12 08:31:45;;;;;;;0.50;0.50;;;;;;;10.78;45.31;101032.98;103438;1279;99319;-62
2022/04/12 08:34:13;;;;;;;0.50;0.50;;;;;;;10.85;44.41;101040.69;103373;1280;138690;-64
2022/04/12 08:36:41;;;;;;;0.50;0.40;;;;;;;10.86;44.11;101039.42;103451;1279;97794;-64
2022/04/12 08:39:09;;;;;;;0.50;0.40;;;;;;;10.70;44.12;101039.34;103402;1281;97825;-64
2022/04/12 08:41:40;;;;;;;0.60;0.60;;;;;;;10.69;44.55;101035.98;103317;1278;138452;-63
2022/04/12 08:44:08;;;;;;;0.40;0.40;;;;;;;10.72;44.04;101036.28;103509;1279;98311;-62
2022/04/12 08:46:38;;;;;;;0.50;0.50;;;;;;;10.69;44.13;101036.16;103337;1279;138485;-63
2022/04/12 08:49:06;;;;;;;0.60;0.60;;;;;;;10.91;44.21;101032.77;103455;1279;97029;-64
2022/04/12 08:51:34;;;;;;;0.50;0.40;;;;;;;11.16;43.55;101029.83;103500;1279;97771;-64
2022/04/12 08:54:03;;;;;;;0.40;0.40;;;;;;;11.46;42.46;101021.95;103369;1279;139313;-63
2022/04/12 08:56:31;;;;;;;0.50;0.50;;;;;;;11.58;40.91;101027.42;103455;1279;99492;-63
2022/04/12 08:58:59;;;;;;;0.50;0.40;;;;;;;11.65;39.64;101024.96;103307;1279;138508;-64
2022/04/12 09:01:42;;;;;;;0.50;0.40;;;;;;;11.54;39.27;101026.60;103391;1278;96607;-64
2022/04/12 09:04:11;;;;;;;0.40;0.40;;;;;;;11.53;40.35;101027.34;103447;1279;138835;-62
2022/04/12 09:06:52;;;;;;;0.50;0.50;;;;;;;11.59;40.63;101028.81;103427;1279;110027;-64
2022/04/12 09:09:22;;;;;;;0.60;0.60;;;;;;;11.83;39.78;101027.98;103450;1279;99454;-64
2022/04/12 09:12:02;;;;;;;0.50;0.40;;;;;;;12.76;39.53;101024.58;103447;1279;138522;-63
2022/04/12 09:14:38;;;;;;;0.40;0.30;;;;;;;14.46;37.96;101021.34;103590;1278;97154;-62
2022/04/12 09:17:09;;;;;;;0.40;0.20;;;;;;;15.89;35.18;101012.06;103458;1279;138892;-64
2022/04/12 09:19:38;;;;;;;0.40;0.30;;;;;;;16.02;33.01;101009.44;103369;1279;111651;-63
2022/04/12 09:22:11;;;;;;;0.40;0.20;;;;;;;16.24;33.44;101007.66;103459;1279;139445;-63
2022/04/12 09:24:46;;;;;;;0.40;0.20;;;;;;;16.15;33.31;101011.80;103448;1279;108905;-63
2022/04/12 09:27:16;;;;;;;0.40;0.20;;;;;;;15.81;32.97;101012.73;103553;1279;96581;-64
2022/04/12 09:29:48;;;;;;;0.40;0.20;;;;;;;15.27;33.26;101015.77;103425;1279;138545;-64
2022/04/12 09:32:24;;;;;;;0.40;0.20;;;;;;;15.31;34.10;101013.64;103433;1279;111617;-63
2022/04/12 09:34:54;;;;;;;0.40;0.20;;;;;;;15.41;33.89;101012.94;103416;1279;139252;-64
2022/04/12 09:37:23;;;;;;;0.40;0.20;;;;;;;14.94;34.63;101017.84;103704;1279;109116;-63
2022/04/12 09:40:00;;;;;;;0.40;0.20;;;;;;;14.55;35.67;101018.22;103573;1279;97013;-63
2022/04/12 09:42:42;;;;;;;0.40;0.30;;;;;;;14.45;36.21;101016.73;103376;1279;140693;-62
2022/04/12 09:45:26;;;;;;;0.40;0.30;;;;;;;15.98;34.73;101010.94;103408;1279;111049;-64
2022/04/12 09:48:01;;;;;;;0.40;0.30;;;;;;;18.28;31.83;101007.08;103416;1281;138792;-62
2022/04/12 09:50:50;;;;;;;0.40;0.20;;;;;;;20.49;28.76;101001.92;103421;1279;108776;-64
2022/04/12 09:53:18;;;;;;;0.40;0.20;;;;;;;22.05;25.44;100994.45;103384;1279;140893;-64
2022/04/12 09:55:47;;;;;;;0.40;0.10;;;;;;;22.79;24.82;100991.16;103480;1279;97803;-64
2022/04/12 09:58:17;;;;;;;0.40;0.10;;;;;;;22.27;25.20;100995.75;103399;1279;138908;-63
2022/04/12 10:00:48;;;;;;;0.40;0.10;;;;;;;23.36;23.81;100995.20;103490;1279;98545;-62
2022/04/12 10:03:18;;;;;;;0.40;0.10;;;;;;;24.30;23.07;100994.30;103470;1279;108740;-63
2022/04/12 10:05:47;;;;;;;0.40;0.00;;;;;;;23.38;23.18;101003.92;103357;1279;138710;-63
2022/04/12 10:08:19;;;;;;;0.40;0.10;;;;;;;22.00;24.16;100999.83;103506;1279;96601;-63
2022/04/12 10:10:47;;;;;;;0.40;0.10;;;;;;;21.28;24.28;101000.15;103330;1279;138639;-62
2022/04/12 10:13:16;;;;;;;0.40;0.10;;;;;;;20.49;25.35;100997.60;103480;1279;100231;-64
2022/04/12 10:15:44;;;;;;;0.40;0.10;;;;;;;19.51;26.16;101001.05;103455;1279;108737;-64
2022/04/12 10:18:16;;;;;;;0.40;0.10;;;;;;;18.56;27.30;100997.52;103391;1279;138706;-64
2022/04/12 10:20:45;;;;;;;0.40;0.10;;;;;;;17.77;28.52;100993.36;103307;1280;98285;-62
2022/04/12 10:23:17;;;;;;;0.40;0.20;;;;;;;17.49;29.18;100991.06;103722;1279;138910;-63
2022/04/12 10:25:48;;;;;;;0.40;0.20;;;;;;;19.18;27.15;100983.47;103351;1279;99333;-62
2022/04/12 10:28:17;;;;;;;0.40;0.20;;;;;;;20.77;26.16;100969.61;103681;1279;138683;-63
2022/04/12 10:30:45;;;;;;;0.40;0.10;;;;;;;22.53;23.51;100967.77;103439;1279;96568;-63
2022/04/12 10:33:16;;;;;;;0.40;0.10;;;;;;;23.77;22.02;100969.14;103333;1281;98125;-62
2022/04/12 10:35:44;;;;;;;0.40;0.10;;;;;;;25.00;20.40;100968.50;103379;1279;140736;-62
2022/04/12 10:38:17;;;;;;;0.40;0.10;;;;;;;26.01;19.95;100971.52;103542;1279;98029;-63
2022/04/12 10:40:47;;;;;;;0.40;0.00;;;;;;;26.85;18.54;100977.16;103697;1279;138677;-65
2022/04/12 10:43:22;;;;;;;0.40;0.00;;;;;;;25.44;19.39;100977.76;103907;1279;96588;-65
2022/04/12 10:45:51;;;;;;;0.40;0.10;;;;;;;24.00;20.62;100981.43;103490;1279;97213;-62
2022/04/12 10:48:21;;;;;;;0.40;0.10;;;;;;;22.97;21.62;100987.61;103389;1279;138559;-63
2022/04/12 10:50:51;;;;;;;0.40;0.10;;;;;;;21.89;22.12;100983.52;103523;1278;99537;-64
2022/04/12 10:53:40;;;;;;;0.40;0.10;;;;;;;21.42;22.97;100980.48;103783;1279;138517;-64
2022/04/12 10:56:09;;;;;;;0.40;0.10;;;;;;;20.50;23.67;100978.39;103408;1279;96686;-64
2022/04/12 10:58:37;;;;;;;0.40;0.10;;;;;;;19.74;24.03;100978.40;103378;1279;139124;-64
2022/04/12 11:01:10;;;;;;;0.40;0.10;;;;;;;18.74;25.08;100983.10;103392;1279;111337;-64
2022/04/12 11:03:41;;;;;;;0.40;0.10;;;;;;;18.22;26.70;100978.34;103613;1279;99354;-63
2022/04/12 11:06:10;;;;;;;0.40;0.10;;;;;;;17.83;27.22;100979.09;103285;1279;138427;-65
2022/04/12 11:08:37;;;;;;;0.40;0.20;;;;;;;17.31;27.69;100983.80;103372;1281;97031;-65
2022/04/12 11:11:06;;;;;;;0.40;0.20;;;;;;;17.01;27.40;100988.52;103270;1280;138567;-64
2022/04/12 11:13:35;;;;;;;0.40;0.20;;;;;;;16.77;27.40;100991.13;103608;1278;111197;-63
2022/04/12 11:16:11;;;;;;;0.40;0.20;;;;;;;16.51;25.73;100990.61;103420;1281;99859;-64
2022/04/12 11:18:50;;;;;;;0.40;0.20;;;;;;;16.19;25.82;100991.20;103312;1279;138503;-64
2022/04/12 11:21:23;;;;;;;0.40;0.20;;;;;;;15.91;26.74;100993.02;103431;1279;97065;-64
2022/04/12 11:23:57;;;;;;;0.40;0.30;;;;;;;15.74;26.86;100999.75;103321;1281;139198;-61
2022/04/12 11:26:40;;;;;;;0.40;0.20;;;;;;;15.40;26.99;101001.71;103425;1279;111413;-64
2022/04/12 11:29:13;;;;;;;0.40;0.30;;;;;;;15.05;28.41;101002.96;103425;1279;138675;-63